Donie, Texas
Current Conditions -  °F | °C
As of 2:55 AM on Monday 24 Nov 2014 (Local Time) from KLXY Reporting Station
Clear Clear  
Wind Chill: 46°   Ceiling: Unl
Heat Index: 46°   Visibility: 10mi
Dew Point: 38°   Wind: 0mph
Humidity: 72%   Direction: NA
Pressure: 29.89"   Gusts: NA
Location:  31.48°N, 96.22°W
Report Text: KLXY 240855Z AUTO 00000KT 10SM CLR 08/03 A2989 RMK AO2 T00790031
Loading
Personal Weather Stations






























Interactive Weather Map New forecast layout! Learn more

10-Day Weather Forecast

Advertisements
Track Severe Weather on mobile